Time,TemperatureF,DewpointF,PressureIn,WindDirection,WindDirectionDegrees,WindSpeedMPH,WindSpeedGustMPH,Humidity,HourlyPrecipIn,Conditions,Clouds,dailyrainin,SoftwareType,DateUTC
2013-04-26 00:00:00,45.1,35.2,30.23,WNW,294,0.0,0.0,68,0.00,,,0.00,LWC V2.11 B50,2013-04-26 04:00:00,
2013-04-26 00:01:00,45.1,35.2,30.23,WNW,294,0.0,0.0,68,0.00,,,0.00,LWC V2.11 B50,2013-04-26 04:01:00,
2013-04-26 00:06:00,44.9,35.4,30.23,WNW,294,0.0,0.0,69,0.00,,,0.00,LWC V2.11 B50,2013-04-26 04:06:00,
2013-04-26 00:11:00,44.5,35.0,30.23,WNW,294,0.0,0.0,69,0.00,,,0.00,LWC V2.11 B50,2013-04-26 04:11:00,
2013-04-26 00:16:00,44.1,35.3,30.23,WNW,294,0.0,0.0,71,0.00,,,0.00,LWC V2.11 B50,2013-04-26 04:16:00,
2013-04-26 00:21:00,43.8,35.0,30.23,WNW,294,0.0,0.0,71,0.00,,,0.00,LWC V2.11 B50,2013-04-26 04:21:00,
2013-04-26 00:26:00,43.8,35.0,30.23,WNW,294,0.0,0.0,71,0.00,,,0.00,LWC V2.11 B50,2013-04-26 04:26:00,
2013-04-26 00:31:00,43.8,35.4,30.23,WNW,294,0.0,0.0,72,0.00,,,0.00,LWC V2.11 B50,2013-04-26 04:31:00,
2013-04-26 00:36:00,43.9,35.5,30.23,WNW,294,0.0,0.0,72,0.00,,,0.00,LWC V2.11 B50,2013-04-26 04:36:00,
2013-04-26 00:41:00,43.8,35.7,30.23,WNW,294,0.0,0.0,73,0.00,,,0.00,LWC V2.11 B50,2013-04-26 04:41:00,
2013-04-26 00:46:00,43.6,35.2,30.23,WNW,294,0.0,0.0,72,0.00,,,0.00,LWC V2.11 B50,2013-04-26 04:46:00,
2013-04-26 00:51:00,43.4,35.0,30.23,WNW,294,0.0,0.0,72,0.00,,,0.00,LWC V2.11 B50,2013-04-26 04:51:00,
2013-04-26 00:56:00,43.2,35.1,30.23,WNW,294,0.0,0.0,73,0.00,,,0.00,LWC V2.11 B50,2013-04-26 04:56:00,
2013-04-26 01:01:00,43.2,35.5,30.23,WNW,294,0.0,0.0,74,0.00,,,0.00,LWC V2.11 B50,2013-04-26 05:01:00,
2013-04-26 01:06:00,43.3,35.2,30.24,WNW,294,0.0,0.0,73,0.00,,,0.00,LWC V2.11 B50,2013-04-26 05:06:00,
2013-04-26 01:11:00,43.3,35.2,30.24,WNW,294,0.0,0.0,73,0.00,,,0.00,LWC V2.11 B50,2013-04-26 05:11:00,
2013-04-26 01:16:00,43.4,35.3,30.24,WNW,294,0.0,0.0,73,0.00,,,0.00,LWC V2.11 B50,2013-04-26 05:16:00,
2013-04-26 01:21:00,43.4,35.3,30.24,WNW,294,0.0,0.0,73,0.00,,,0.00,LWC V2.11 B50,2013-04-26 05:21:00,
2013-04-26 01:26:00,43.3,35.6,30.24,WNW,294,0.0,0.0,74,0.00,,,0.00,LWC V2.11 B50,2013-04-26 05:26:00,
2013-04-26 01:31:00,43.2,35.5,30.24,WNW,294,0.0,0.0,74,0.00,,,0.00,LWC V2.11 B50,2013-04-26 05:31:00,
2013-04-26 01:36:00,43.0,34.9,30.24,WNW,294,0.0,0.0,73,0.00,,,0.00,LWC V2.11 B50,2013-04-26 05:36:00,
2013-04-26 01:41:00,42.8,35.1,30.24,WNW,294,0.0,0.0,74,0.00,,,0.00,LWC V2.11 B50,2013-04-26 05:41:00,
2013-04-26 01:46:00,42.5,34.8,30.24,WNW,294,0.0,0.0,74,0.00,,,0.00,LWC V2.11 B50,2013-04-26 05:46:00,
2013-04-26 01:51:00,42.3,34.3,30.24,WNW,294,0.0,0.0,73,0.00,,,0.00,LWC V2.11 B50,2013-04-26 05:51:00,
2013-04-26 01:56:00,42.1,34.4,30.24,WNW,294,0.0,0.0,74,0.00,,,0.00,LWC V2.11 B50,2013-04-26 05:56:00,
2013-04-26 02:01:00,42.2,34.9,30.24,WNW,294,0.0,0.0,75,0.00,,,0.00,LWC V2.11 B50,2013-04-26 06:01:00,
2013-04-26 02:06:00,42.4,35.0,30.24,WNW,294,0.0,0.0,75,0.00,,,0.00,LWC V2.11 B50,2013-04-26 06:06:00,
2013-04-26 02:11:00,42.5,34.5,30.24,WNW,294,0.0,0.0,73,0.00,,,0.00,LWC V2.11 B50,2013-04-26 06:11:00,
2013-04-26 02:16:00,42.8,33.7,30.24,WNW,294,0.0,0.0,70,0.00,,,0.00,LWC V2.11 B50,2013-04-26 06:16:00,
2013-04-26 02:21:00,43.2,33.4,30.24,WNW,294,0.0,0.0,68,0.00,,,0.00,LWC V2.11 B50,2013-04-26 06:21:00,
2013-04-26 02:26:00,43.4,33.9,30.24,WNW,294,0.0,0.0,69,0.00,,,0.00,LWC V2.11 B50,2013-04-26 06:26:00,
2013-04-26 02:31:00,43.6,34.1,30.23,WNW,294,0.0,0.0,69,0.00,,,0.00,LWC V2.11 B50,2013-04-26 06:31:00,
2013-04-26 02:36:00,43.6,34.5,30.23,WNW,294,0.0,0.0,70,0.00,,,0.00,LWC V2.11 B50,2013-04-26 06:36:00,
2013-04-26 02:41:00,43.6,34.8,30.23,WNW,294,0.0,0.0,71,0.00,,,0.00,LWC V2.11 B50,2013-04-26 06:41:00,
2013-04-26 02:46:00,43.6,34.8,30.23,WNW,294,0.0,0.0,71,0.00,,,0.00,LWC V2.11 B50,2013-04-26 06:46:00,
2013-04-26 02:51:00,43.3,33.8,30.23,WNW,294,0.0,0.0,69,0.00,,,0.00,LWC V2.11 B50,2013-04-26 06:51:00,
2013-04-26 02:56:00,43.3,33.5,30.24,WNW,294,0.0,0.0,68,0.00,,,0.00,LWC V2.11 B50,2013-04-26 06:56:00,
2013-04-26 03:01:00,43.3,33.5,30.24,WNW,294,0.0,0.0,68,0.00,,,0.00,LWC V2.11 B50,2013-04-26 07:01:00,
2013-04-26 03:06:00,43.5,34.0,30.24,WNW,294,0.0,0.0,69,0.00,,,0.00,LWC V2.11 B50,2013-04-26 07:06:00,
2013-04-26 03:11:00,43.4,33.9,30.24,WNW,294,0.0,0.0,69,0.00,,,0.00,LWC V2.11 B50,2013-04-26 07:11:00,
2013-04-26 03:16:00,43.2,34.1,30.24,WNW,294,0.0,0.0,70,0.00,,,0.00,LWC V2.11 B50,2013-04-26 07:16:00,
2013-04-26 03:21:00,42.9,33.8,30.24,WNW,294,0.0,0.0,70,0.00,,,0.00,LWC V2.11 B50,2013-04-26 07:21:00,
2013-04-26 03:26:00,42.6,34.2,30.24,WNW,294,0.0,0.0,72,0.00,,,0.00,LWC V2.11 B50,2013-04-26 07:26:00,
2013-04-26 03:31:00,42.2,34.2,30.25,WNW,294,0.0,0.0,73,0.00,,,0.00,LWC V2.11 B50,2013-04-26 07:31:00,
2013-04-26 03:36:00,41.9,34.2,30.25,WNW,294,0.0,0.0,74,0.00,,,0.00,LWC V2.11 B50,2013-04-26 07:36:00,
2013-04-26 03:41:00,41.5,34.2,30.25,WNW,294,0.0,0.0,75,0.00,,,0.00,LWC V2.11 B50,2013-04-26 07:41:00,
2013-04-26 03:46:00,41.2,33.9,30.25,WNW,294,0.0,0.0,75,0.00,,,0.00,LWC V2.11 B50,2013-04-26 07:46:00,
2013-04-26 03:51:00,40.9,33.9,30.26,WNW,294,0.0,0.0,76,0.00,,,0.00,LWC V2.11 B50,2013-04-26 07:51:00,
2013-04-26 03:56:00,40.6,33.6,30.26,WNW,294,0.0,0.0,76,0.00,,,0.00,LWC V2.11 B50,2013-04-26 07:56:00,
2013-04-26 04:01:00,40.3,33.7,30.26,WNW,294,0.0,0.0,77,0.00,,,0.00,LWC V2.11 B50,2013-04-26 08:01:00,
2013-04-26 04:06:00,40.0,33.7,30.26,WNW,294,0.0,0.0,78,0.00,,,0.00,LWC V2.11 B50,2013-04-26 08:06:00,
2013-04-26 04:11:00,39.8,33.5,30.26,WNW,294,0.0,0.0,78,0.00,,,0.00,LWC V2.11 B50,2013-04-26 08:11:00,
2013-04-26 04:16:00,39.7,33.7,30.26,WNW,294,0.0,0.0,79,0.00,,,0.00,LWC V2.11 B50,2013-04-26 08:16:00,
2013-04-26 04:21:00,39.6,33.6,30.26,WNW,294,0.0,0.0,79,0.00,,,0.00,LWC V2.11 B50,2013-04-26 08:21:00,
2013-04-26 04:26:00,39.5,33.5,30.26,WNW,294,0.0,0.0,79,0.00,,,0.00,LWC V2.11 B50,2013-04-26 08:26:00,
2013-04-26 04:31:00,39.7,33.7,30.27,WNW,294,0.0,0.0,79,0.00,,,0.00,LWC V2.11 B50,2013-04-26 08:31:00,
2013-04-26 04:36:00,40.4,33.8,30.27,WNW,294,0.0,0.0,77,0.00,,,0.00,LWC V2.11 B50,2013-04-26 08:36:00,
2013-04-26 04:41:00,41.4,34.1,30.27,WNW,294,0.0,0.0,75,0.00,,,0.00,LWC V2.11 B50,2013-04-26 08:41:00,
2013-04-26 04:46:00,42.5,34.1,30.27,WNW,294,0.0,0.0,72,0.00,,,0.00,LWC V2.11 B50,2013-04-26 08:46:00,
2013-04-26 04:51:00,43.2,34.1,30.27,WNW,294,0.0,0.0,70,0.00,,,0.00,LWC V2.11 B50,2013-04-26 08:51:00,
2013-04-26 04:56:00,43.6,34.1,30.28,WNW,294,0.0,0.0,69,0.00,,,0.00,LWC V2.11 B50,2013-04-26 08:56:00,
2013-04-26 05:00:00,43.8,34.3,30.28,WNW,294,0.0,0.0,69,0.00,,,0.00,LWC V2.11 B50,2013-04-26 09:00:00,
2013-04-26 05:05:00,43.6,34.1,30.28,WNW,294,0.0,0.0,69,0.00,,,0.00,LWC V2.11 B50,2013-04-26 09:05:00,
2013-04-26 05:10:00,43.3,34.2,30.29,WNW,294,0.0,0.0,70,0.00,,,0.00,LWC V2.11 B50,2013-04-26 09:10:00,
2013-04-26 05:15:00,43.0,33.9,30.28,WNW,294,0.0,0.0,70,0.00,,,0.00,LWC V2.11 B50,2013-04-26 09:15:00,
2013-04-26 05:20:00,42.7,34.0,30.28,WNW,294,0.0,0.0,71,0.00,,,0.00,LWC V2.11 B50,2013-04-26 09:20:00,
2013-04-26 05:25:00,42.3,33.6,30.29,WNW,294,0.0,0.0,71,0.00,,,0.00,LWC V2.11 B50,2013-04-26 09:25:00,
2013-04-26 05:30:00,42.2,33.8,30.29,WNW,294,0.0,0.0,72,0.00,,,0.00,LWC V2.11 B50,2013-04-26 09:30:00,
2013-04-26 05:35:00,42.1,33.7,30.29,WNW,294,0.0,0.0,72,0.00,,,0.00,LWC V2.11 B50,2013-04-26 09:35:00,
2013-04-26 05:40:00,42.2,33.5,30.29,WNW,294,0.0,0.0,71,0.00,,,0.00,LWC V2.11 B50,2013-04-26 09:40:00,
2013-04-26 05:45:00,42.2,33.8,30.29,WNW,294,0.0,0.0,72,0.00,,,0.00,LWC V2.11 B50,2013-04-26 09:45:00,
2013-04-26 05:50:00,42.0,33.6,30.29,WNW,294,0.0,0.0,72,0.00,,,0.00,LWC V2.11 B50,2013-04-26 09:50:00,
2013-04-26 05:55:00,41.9,33.5,30.29,WNW,294,0.0,0.0,72,0.00,,,0.00,LWC V2.11 B50,2013-04-26 09:55:00,
2013-04-26 06:00:00,41.8,33.4,30.30,WNW,294,0.0,0.0,72,0.00,,,0.00,LWC V2.11 B50,2013-04-26 10:00:00,
2013-04-26 06:05:00,41.8,33.4,30.30,WNW,294,0.0,0.0,72,0.00,,,0.00,LWC V2.11 B50,2013-04-26 10:05:00,
2013-04-26 06:10:00,41.9,34.9,30.30,WNW,294,0.0,0.0,76,0.00,,,0.00,LWC V2.11 B50,2013-04-26 10:10:00,
2013-04-26 06:15:00,42.0,34.0,30.30,WNW,294,0.0,0.0,73,0.00,,,0.00,LWC V2.11 B50,2013-04-26 10:15:00,
2013-04-26 06:20:00,42.1,34.1,30.30,WNW,294,0.0,0.0,73,0.00,,,0.00,LWC V2.11 B50,2013-04-26 10:20:00,
2013-04-26 06:25:00,42.0,34.0,30.31,WNW,294,0.0,0.0,73,0.00,,,0.00,LWC V2.11 B50,2013-04-26 10:25:00,
2013-04-26 06:30:00,41.9,34.2,30.31,WNW,294,0.0,0.0,74,0.00,,,0.00,LWC V2.11 B50,2013-04-26 10:30:00,
2013-04-26 06:35:00,41.8,34.1,30.31,WNW,294,0.0,0.0,74,0.00,,,0.00,LWC V2.11 B50,2013-04-26 10:35:00,
2013-04-26 06:40:00,42.2,34.5,30.31,WNW,294,0.0,0.0,74,0.00,,,0.00,LWC V2.11 B50,2013-04-26 10:40:00,
2013-04-26 06:45:00,42.9,34.9,30.32,WNW,294,0.0,0.0,73,0.00,,,0.00,LWC V2.11 B50,2013-04-26 10:45:00,
2013-04-26 06:50:00,43.8,35.0,30.32,WNW,295,0.0,0.0,71,0.00,,,0.00,LWC V2.11 B50,2013-04-26 10:50:00,
2013-04-26 06:55:00,44.5,35.3,30.32,WNW,295,0.0,1.0,70,0.00,,,0.00,LWC V2.11 B50,2013-04-26 10:55:00,
2013-04-26 07:00:00,45.3,35.4,30.32,WNW,295,0.0,0.0,68,0.00,,,0.00,LWC V2.11 B50,2013-04-26 11:00:00,
2013-04-26 07:05:00,46.0,35.3,30.33,WNW,295,0.0,2.0,66,0.00,,,0.00,LWC V2.11 B50,2013-04-26 11:05:00,
2013-04-26 07:10:00,46.7,35.6,30.33,WNW,295,0.0,3.0,65,0.00,,,0.00,LWC V2.11 B50,2013-04-26 11:10:00,
2013-04-26 07:15:00,47.3,35.7,30.33,WNW,292,0.0,3.0,64,0.00,,,0.00,LWC V2.11 B50,2013-04-26 11:15:00,
2013-04-26 07:20:00,47.9,36.3,30.33,WNW,287,0.0,3.0,64,0.00,,,0.00,LWC V2.11 B50,2013-04-26 11:20:00,
2013-04-26 07:25:00,48.4,36.4,30.33,NW,310,0.0,1.0,63,0.00,,,0.00,LWC V2.11 B50,2013-04-26 11:25:00,
2013-04-26 07:30:00,48.9,36.5,30.34,WNW,303,0.0,2.0,62,0.00,,,0.00,LWC V2.11 B50,2013-04-26 11:30:00,
2013-04-26 07:35:00,49.3,36.0,30.34,WNW,300,1.0,7.0,60,0.00,,,0.00,LWC V2.11 B50,2013-04-26 11:35:00,
2013-04-26 07:40:00,49.6,36.3,30.34,NW,311,0.0,9.0,60,0.00,,,0.00,LWC V2.11 B50,2013-04-26 11:40:00,
2013-04-26 07:45:00,50.0,37.1,30.34,WNW,295,0.0,4.0,61,0.00,,,0.00,LWC V2.11 B50,2013-04-26 11:45:00,
2013-04-26 07:50:00,50.3,36.5,30.34,NW,309,0.0,7.0,59,0.00,,,0.00,LWC V2.11 B50,2013-04-26 11:50:00,
2013-04-26 07:55:00,50.6,37.2,30.34,NW,309,3.0,7.0,60,0.00,,,0.00,LWC V2.11 B50,2013-04-26 11:55:00,
2013-04-26 08:00:00,51.0,37.2,30.34,NNW,336,1.0,11.0,59,0.00,,,0.00,LWC V2.11 B50,2013-04-26 12:00:00,
2013-04-26 08:05:00,51.2,36.9,30.35,WNW,292,4.0,5.0,58,0.00,,,0.00,LWC V2.11 B50,2013-04-26 12:05:00,
2013-04-26 08:10:00,51.4,37.1,30.35,WNW,298,0.0,10.0,58,0.00,,,0.00,LWC V2.11 B50,2013-04-26 12:10:00,
2013-04-26 08:15:00,51.4,37.1,30.35,WNW,296,0.0,8.0,58,0.00,,,0.00,LWC V2.11 B50,2013-04-26 12:15:00,
2013-04-26 08:20:00,51.6,37.3,30.35,WNW,291,2.0,5.0,58,0.00,,,0.00,LWC V2.11 B50,2013-04-26 12:20:00,
2013-04-26 08:25:00,51.8,37.5,30.34,NE,50,2.0,4.0,58,0.00,,,0.00,LWC V2.11 B50,2013-04-26 12:25:00,
2013-04-26 08:30:00,52.1,37.8,30.35,WNW,300,0.0,5.0,58,0.00,,,0.00,LWC V2.11 B50,2013-04-26 12:30:00,
2013-04-26 08:35:00,52.1,37.8,30.35,NE,51,1.0,6.0,58,0.00,,,0.00,LWC V2.11 B50,2013-04-26 12:35:00,
2013-04-26 08:40:00,52.1,37.8,30.35,WNW,288,11.0,11.0,58,0.00,,,0.00,LWC V2.11 B50,2013-04-26 12:40:00,
2013-04-26 08:45:00,52.2,38.3,30.36,WNW,303,2.0,7.0,59,0.00,,,0.00,LWC V2.11 B50,2013-04-26 12:45:00,
2013-04-26 08:50:00,52.2,37.9,30.36,West,268,2.0,10.0,58,0.00,,,0.00,LWC V2.11 B50,2013-04-26 12:50:00,
2013-04-26 08:55:00,52.4,38.5,30.36,NNW,327,0.0,8.0,59,0.00,,,0.00,LWC V2.11 B50,2013-04-26 12:55:00,
2013-04-26 09:00:00,52.7,38.3,30.36,NNW,340,0.0,7.0,58,0.00,,,0.00,LWC V2.11 B50,2013-04-26 13:00:00,
2013-04-26 09:05:00,53.1,39.2,30.36,WNW,298,0.0,1.0,59,0.00,,,0.00,LWC V2.11 B50,2013-04-26 13:05:00,
2013-04-26 09:10:00,53.3,38.5,30.36,NW,304,0.0,6.0,57,0.00,,,0.00,LWC V2.11 B50,2013-04-26 13:10:00,
2013-04-26 09:15:00,53.6,39.2,30.36,WNW,300,0.0,9.0,58,0.00,,,0.00,LWC V2.11 B50,2013-04-26 13:15:00,
2013-04-26 09:20:00,53.7,38.8,30.37,NE,41,0.0,6.0,57,0.00,,,0.00,LWC V2.11 B50,2013-04-26 13:20:00,
2013-04-26 09:25:00,54.1,39.2,30.37,NW,321,0.0,5.0,57,0.00,,,0.00,LWC V2.11 B50,2013-04-26 13:25:00,
2013-04-26 09:30:00,54.6,39.2,30.37,WNW,303,0.0,8.0,56,0.00,,,0.00,LWC V2.11 B50,2013-04-26 13:30:00,
2013-04-26 09:35:00,54.9,39.5,30.37,WNW,294,6.0,6.0,56,0.00,,,0.00,LWC V2.11 B50,2013-04-26 13:35:00,
2013-04-26 09:40:00,55.2,40.7,30.37,WNW,301,0.0,0.0,58,0.00,,,0.00,LWC V2.11 B50,2013-04-26 13:40:00,
2013-04-26 09:45:00,55.4,39.0,30.37,WNW,291,0.0,10.0,54,0.00,,,0.00,LWC V2.11 B50,2013-04-26 13:45:00,
2013-04-26 09:50:00,55.4,40.0,30.37,NW,304,3.0,6.0,56,0.00,,,0.00,LWC V2.11 B50,2013-04-26 13:50:00,
2013-04-26 09:55:00,54.9,38.6,30.37,WNW,296,5.0,15.0,54,0.00,,,0.00,LWC V2.11 B50,2013-04-26 13:55:00,
2013-04-26 10:00:00,54.6,38.3,30.37,WNW,295,0.0,7.0,54,0.00,,,0.00,LWC V2.11 B50,2013-04-26 14:00:00,
2013-04-26 10:05:00,55.0,39.1,30.37,WNW,298,0.0,3.0,55,0.00,,,0.00,LWC V2.11 B50,2013-04-26 14:05:00,
2013-04-26 10:10:00,55.3,38.5,30.37,West,269,3.0,14.0,53,0.00,,,0.00,LWC V2.11 B50,2013-04-26 14:10:00,
2013-04-26 10:15:00,55.1,38.8,30.37,WNW,283,0.0,3.0,54,0.00,,,0.00,LWC V2.11 B50,2013-04-26 14:15:00,
2013-04-26 10:20:00,55.5,39.1,30.37,NW,309,0.0,1.0,54,0.00,,,0.00,LWC V2.11 B50,2013-04-26 14:20:00,
2013-04-26 10:25:00,55.8,38.9,30.37,NE,52,0.0,0.0,53,0.00,,,0.00,LWC V2.11 B50,2013-04-26 14:25:00,
2013-04-26 10:30:00,56.3,39.9,30.37,WNW,298,5.0,9.0,54,0.00,,,0.00,LWC V2.11 B50,2013-04-26 14:30:00,
2013-04-26 10:35:00,56.3,39.9,30.37,WNW,284,6.0,9.0,54,0.00,,,0.00,LWC V2.11 B50,2013-04-26 14:35:00,
2013-04-26 10:40:00,56.2,38.3,30.37,WNW,295,0.0,6.0,51,0.00,,,0.00,LWC V2.11 B50,2013-04-26 14:40:00,
2013-04-26 10:45:00,56.0,38.1,30.37,WNW,283,0.0,4.0,51,0.00,,,0.00,LWC V2.11 B50,2013-04-26 14:45:00,
2013-04-26 10:50:00,56.4,39.0,30.37,WNW,293,0.0,0.0,52,0.00,,,0.00,LWC V2.11 B50,2013-04-26 14:50:00,
2013-04-26 10:55:00,57.0,40.0,30.37,West,281,0.0,4.0,53,0.00,,,0.00,LWC V2.11 B50,2013-04-26 14:55:00,
2013-04-26 11:00:00,57.0,41.0,30.37,WNW,283,0.0,0.0,55,0.00,,,0.00,LWC V2.11 B50,2013-04-26 15:00:00,
2013-04-26 11:05:00,57.2,38.2,30.37,NW,323,3.0,5.0,49,0.00,,,0.00,LWC V2.11 B50,2013-04-26 15:05:00,
2013-04-26 11:10:00,57.2,38.2,30.37,WNW,299,4.0,6.0,49,0.00,,,0.00,LWC V2.11 B50,2013-04-26 15:10:00,
2013-04-26 11:15:00,57.3,38.8,30.36,WNW,302,0.0,5.0,50,0.00,,,0.00,LWC V2.11 B50,2013-04-26 15:15:00,
2013-04-26 11:20:00,57.4,37.9,30.36,WNW,295,4.0,7.0,48,0.00,,,0.00,LWC V2.11 B50,2013-04-26 15:20:00,
2013-04-26 11:25:00,57.5,38.5,30.36,WNW,299,5.0,9.0,49,0.00,,,0.00,LWC V2.11 B50,2013-04-26 15:25:00,
2013-04-26 11:30:00,57.6,38.1,30.37,WNW,302,3.0,5.0,48,0.00,,,0.00,LWC V2.11 B50,2013-04-26 15:30:00,
2013-04-26 11:35:00,57.7,38.7,30.36,WNW,298,5.0,5.0,49,0.00,,,0.00,LWC V2.11 B50,2013-04-26 15:35:00,
2013-04-26 11:40:00,58.0,36.8,30.36,NW,307,0.0,11.0,45,0.00,,,0.00,LWC V2.11 B50,2013-04-26 15:40:00,
2013-04-26 11:45:00,58.0,36.8,30.36,WNW,298,6.0,13.0,45,0.00,,,0.00,LWC V2.11 B50,2013-04-26 15:45:00,
2013-04-26 11:50:00,57.6,36.4,30.36,WNW,292,2.0,3.0,45,0.00,,,0.00,LWC V2.11 B50,2013-04-26 15:50:00,
2013-04-26 11:55:00,57.8,36.6,30.36,NNW,329,1.0,5.0,45,0.00,,,0.00,LWC V2.11 B50,2013-04-26 15:55:00,
2013-04-26 12:00:00,57.7,35.9,30.36,WNW,294,2.0,3.0,44,0.00,,,0.00,LWC V2.11 B50,2013-04-26 16:00:00,
2013-04-26 12:05:00,58.0,35.0,30.36,WNW,303,5.0,6.0,42,0.00,,,0.00,LWC V2.11 B50,2013-04-26 16:05:00,
2013-04-26 12:10:00,58.4,37.1,30.35,WNW,292,3.0,6.0,45,0.00,,,0.00,LWC V2.11 B50,2013-04-26 16:10:00,
2013-04-26 12:15:00,58.5,36.1,30.35,WNW,288,1.0,9.0,43,0.00,,,0.00,LWC V2.11 B50,2013-04-26 16:15:00,
2013-04-26 12:20:00,58.5,35.5,30.35,WNW,290,0.0,3.0,42,0.00,,,0.00,LWC V2.11 B50,2013-04-26 16:20:00,
2013-04-26 12:25:00,58.6,36.8,30.35,NNW,328,2.0,2.0,44,0.00,,,0.00,LWC V2.11 B50,2013-04-26 16:25:00,
2013-04-26 12:30:00,58.9,36.4,30.35,NE,52,1.0,4.0,43,0.00,,,0.00,LWC V2.11 B50,2013-04-26 16:30:00,
2013-04-26 12:35:00,59.5,37.0,30.35,NNW,327,1.0,4.0,43,0.00,,,0.00,LWC V2.11 B50,2013-04-26 16:35:00,
2013-04-26 12:40:00,59.7,36.6,30.35,SW,232,0.0,5.0,42,0.00,,,0.00,LWC V2.11 B50,2013-04-26 16:40:00,
2013-04-26 12:45:00,59.9,36.8,30.34,WNW,297,3.0,7.0,42,0.00,,,0.00,LWC V2.11 B50,2013-04-26 16:45:00,
2013-04-26 12:50:00,59.8,35.4,30.34,West,271,1.0,5.0,40,0.00,,,0.00,LWC V2.11 B50,2013-04-26 16:50:00,
2013-04-26 12:55:00,59.6,35.9,30.34,NE,51,0.0,3.0,41,0.00,,,0.00,LWC V2.11 B50,2013-04-26 16:55:00,
2013-04-26 13:00:00,60.0,35.0,30.34,WSW,253,3.0,9.0,39,0.00,,,0.00,LWC V2.11 B50,2013-04-26 17:00:00,
2013-04-26 13:05:00,59.9,32.9,30.34,West,276,0.0,9.0,36,0.00,,,0.00,LWC V2.11 B50,2013-04-26 17:05:00,
2013-04-26 13:10:00,59.4,33.1,30.33,WNW,292,0.0,4.0,37,0.00,,,0.00,LWC V2.11 B50,2013-04-26 17:10:00,
2013-04-26 13:15:00,59.8,36.7,30.33,WNW,297,3.0,8.0,42,0.00,,,0.00,LWC V2.11 B50,2013-04-26 17:15:00,
2013-04-26 13:20:00,60.3,35.9,30.33,WNW,291,0.0,4.0,40,0.00,,,0.00,LWC V2.11 B50,2013-04-26 17:20:00,
2013-04-26 13:25:00,60.9,34.5,30.33,WNW,294,0.0,10.0,37,0.00,,,0.00,LWC V2.11 B50,2013-04-26 17:25:00,
2013-04-26 13:30:00,60.8,35.0,30.33,WNW,290,2.0,9.0,38,0.00,,,0.00,LWC V2.11 B50,2013-04-26 17:30:00,
2013-04-26 13:35:00,60.6,34.2,30.33,WNW,295,0.0,4.0,37,0.00,,,0.00,LWC V2.11 B50,2013-04-26 17:35:00,
2013-04-26 13:40:00,60.8,35.0,30.33,WNW,295,0.0,0.0,38,0.00,,,0.00,LWC V2.11 B50,2013-04-26 17:40:00,
2013-04-26 13:45:00,60.9,35.1,30.33,WNW,302,9.0,10.0,38,0.00,,,0.00,LWC V2.11 B50,2013-04-26 17:45:00,
2013-04-26 13:50:00,60.7,34.9,30.33,WNW,298,3.0,6.0,38,0.00,,,0.00,LWC V2.11 B50,2013-04-26 17:50:00,
2013-04-26 13:55:00,60.8,33.0,30.33,WNW,303,3.0,3.0,35,0.00,,,0.00,LWC V2.11 B50,2013-04-26 17:55:00,
2013-04-26 14:00:00,60.8,30.8,30.33,NW,307,3.0,6.0,32,0.00,,,0.00,LWC V2.11 B50,2013-04-26 18:00:00,
2013-04-26 14:05:00,60.8,31.5,30.33,NW,313,3.0,6.0,33,0.00,,,0.00,LWC V2.11 B50,2013-04-26 18:05:00,
2013-04-26 14:10:00,60.8,35.0,30.33,West,279,0.0,4.0,38,0.00,,,0.00,LWC V2.11 B50,2013-04-26 18:10:00,
2013-04-26 14:15:00,61.4,35.6,30.33,NW,304,0.0,0.0,38,0.00,,,0.00,LWC V2.11 B50,2013-04-26 18:15:00,
2013-04-26 14:20:00,62.0,34.0,30.33,NW,311,3.0,9.0,35,0.00,,,0.00,LWC V2.11 B50,2013-04-26 18:20:00,
2013-04-26 14:25:00,61.7,33.8,30.32,WNW,289,0.0,3.0,35,0.00,,,0.00,LWC V2.11 B50,2013-04-26 18:25:00,
2013-04-26 14:30:00,62.0,36.1,30.32,NW,308,1.0,10.0,38,0.00,,,0.00,LWC V2.11 B50,2013-04-26 18:30:00,
2013-04-26 14:35:00,62.4,34.4,30.33,WNW,302,3.0,6.0,35,0.00,,,0.00,LWC V2.11 B50,2013-04-26 18:35:00,
2013-04-26 14:40:00,62.1,33.4,30.33,WNW,286,0.0,5.0,34,0.00,,,0.00,LWC V2.11 B50,2013-04-26 18:40:00,
2013-04-26 14:45:00,62.1,34.8,30.33,NNW,336,0.0,0.0,36,0.00,,,0.00,LWC V2.11 B50,2013-04-26 18:45:00,
2013-04-26 14:50:00,62.5,34.5,30.32,WNW,292,3.0,9.0,35,0.00,,,0.00,LWC V2.11 B50,2013-04-26 18:50:00,
2013-04-26 14:55:00,62.7,34.7,30.32,West,271,4.0,5.0,35,0.00,,,0.00,LWC V2.11 B50,2013-04-26 18:55:00,
2013-04-26 15:00:00,62.8,34.0,30.32,WNW,283,0.0,5.0,34,0.00,,,0.00,LWC V2.11 B50,2013-04-26 19:00:00,
2013-04-26 15:05:00,62.4,32.9,30.32,WNW,287,0.0,3.0,33,0.00,,,0.00,LWC V2.11 B50,2013-04-26 19:05:00,
2013-04-26 15:10:00,62.3,32.8,30.32,WNW,295,4.0,10.0,33,0.00,,,0.00,LWC V2.11 B50,2013-04-26 19:10:00,
2013-04-26 15:15:00,62.5,36.5,30.32,SSW,202,4.0,6.0,38,0.00,,,0.00,LWC V2.11 B50,2013-04-26 19:15:00,
2013-04-26 15:20:00,62.3,35.7,30.32,NW,309,8.0,8.0,37,0.00,,,0.00,LWC V2.11 B50,2013-04-26 19:20:00,
2013-04-26 15:25:00,62.3,33.6,30.32,WNW,291,2.0,4.0,34,0.00,,,0.00,LWC V2.11 B50,2013-04-26 19:25:00,
2013-04-26 15:30:00,62.3,32.8,30.32,WNW,288,0.0,6.0,33,0.00,,,0.00,LWC V2.11 B50,2013-04-26 19:30:00,
2013-04-26 15:35:00,62.5,33.7,30.32,WNW,289,1.0,3.0,34,0.00,,,0.00,LWC V2.11 B50,2013-04-26 19:35:00,
2013-04-26 15:40:00,62.9,33.4,30.32,WNW,302,0.0,3.0,33,0.00,,,0.00,LWC V2.11 B50,2013-04-26 19:40:00,
2013-04-26 15:45:00,63.4,34.5,30.32,NNW,338,0.0,0.0,34,0.00,,,0.00,LWC V2.11 B50,2013-04-26 19:45:00,
2013-04-26 15:50:00,63.7,34.1,30.32,WNW,303,1.0,1.0,33,0.00,,,0.00,LWC V2.11 B50,2013-04-26 19:50:00,
2013-04-26 15:55:00,64.0,34.3,30.31,WNW,289,0.0,3.0,33,0.00,,,0.00,LWC V2.11 B50,2013-04-26 19:55:00,
2013-04-26 16:00:00,63.6,33.2,30.31,NNE,28,0.0,0.0,32,0.00,,,0.00,LWC V2.11 B50,2013-04-26 20:00:00,
2013-04-26 16:05:00,63.8,33.4,30.31,NW,311,0.0,1.0,32,0.00,,,0.00,LWC V2.11 B50,2013-04-26 20:05:00,
2013-04-26 16:08:00,63.8,34.1,30.31,WNW,302,0.0,0.0,33,0.00,,,0.00,LWC V2.11 B50,2013-04-26 20:08:00,
2013-04-26 16:13:00,63.5,32.3,30.31,WSW,242,0.0,0.0,31,0.00,,,0.00,LWC V2.11 B50,2013-04-26 20:13:00,
2013-04-26 16:18:00,63.4,32.2,30.31,WSW,242,0.0,0.0,31,0.00,,,0.00,LWC V2.11 B50,2013-04-26 20:18:00,
2013-04-26 16:23:00,63.2,31.3,30.31,SW,225,0.0,0.0,30,0.00,,,0.00,LWC V2.11 B50,2013-04-26 20:23:00,
2013-04-26 16:28:00,63.5,33.1,30.30,WNW,302,0.0,2.0,32,0.00,,,0.00,LWC V2.11 B50,2013-04-26 20:28:00,
2013-04-26 16:33:00,64.0,33.5,30.31,WNW,292,3.0,4.0,32,0.00,,,0.00,LWC V2.11 B50,2013-04-26 20:33:00,
2013-04-26 16:38:00,64.2,32.9,30.31,NNW,330,0.0,3.0,31,0.00,,,0.00,LWC V2.11 B50,2013-04-26 20:38:00,
2013-04-26 16:43:00,64.0,31.9,30.31,WNW,293,3.0,5.0,30,0.00,,,0.00,LWC V2.11 B50,2013-04-26 20:43:00,
2013-04-26 16:48:00,64.1,32.8,30.30,WNW,300,0.0,0.0,31,0.00,,,0.00,LWC V2.11 B50,2013-04-26 20:48:00,
2013-04-26 16:53:00,64.2,32.1,30.31,WNW,302,0.0,0.0,30,0.00,,,0.00,LWC V2.11 B50,2013-04-26 20:53:00,
2013-04-26 16:58:00,64.0,31.1,30.31,WNW,284,2.0,6.0,29,0.00,,,0.00,LWC V2.11 B50,2013-04-26 20:58:00,
2013-04-26 17:03:00,63.4,31.4,30.31,WNW,289,0.0,0.0,30,0.00,,,0.00,LWC V2.11 B50,2013-04-26 21:03:00,
2013-04-26 17:08:00,63.6,33.2,30.31,WNW,292,0.0,4.0,32,0.00,,,0.00,LWC V2.11 B50,2013-04-26 21:08:00,
2013-04-26 17:13:00,64.0,31.9,30.31,NE,51,0.0,3.0,30,0.00,,,0.00,LWC V2.11 B50,2013-04-26 21:13:00,
2013-04-26 17:18:00,64.2,32.9,30.31,WNW,302,3.0,4.0,31,0.00,,,0.00,LWC V2.11 B50,2013-04-26 21:18:00,
2013-04-26 17:23:00,64.3,32.2,30.31,WNW,284,0.0,0.0,30,0.00,,,0.00,LWC V2.11 B50,2013-04-26 21:23:00,
2013-04-26 17:29:00,64.1,33.6,30.31,NW,323,0.0,1.0,32,0.00,,,0.00,LWC V2.11 B50,2013-04-26 21:29:00,
2013-04-26 17:34:00,64.3,33.0,30.31,West,280,0.0,4.0,31,0.00,,,0.00,LWC V2.11 B50,2013-04-26 21:34:00,
2013-04-26 17:39:00,64.1,33.6,30.31,NW,304,0.0,0.0,32,0.00,,,0.00,LWC V2.11 B50,2013-04-26 21:39:00,
2013-04-26 17:44:00,64.1,33.6,30.31,NE,38,0.0,0.0,32,0.00,,,0.00,LWC V2.11 B50,2013-04-26 21:44:00,
2013-04-26 17:49:00,64.4,33.9,30.31,North,355,0.0,0.0,32,0.00,,,0.00,LWC V2.11 B50,2013-04-26 21:49:00,
2013-04-26 17:54:00,64.1,32.8,30.31,WNW,294,0.0,4.0,31,0.00,,,0.00,LWC V2.11 B50,2013-04-26 21:54:00,
2013-04-26 17:59:00,64.1,31.2,30.31,WNW,300,4.0,8.0,29,0.00,,,0.00,LWC V2.11 B50,2013-04-26 21:59:00,
2013-04-26 18:04:00,63.9,31.9,30.31,WNW,290,0.0,5.0,30,0.00,,,0.00,LWC V2.11 B50,2013-04-26 22:04:00,
2013-04-26 18:09:00,63.8,31.8,30.31,WNW,290,0.0,1.0,30,0.00,,,0.00,LWC V2.11 B50,2013-04-26 22:09:00,
2013-04-26 18:14:00,63.8,32.6,30.31,WNW,291,3.0,5.0,31,0.00,,,0.00,LWC V2.11 B50,2013-04-26 22:14:00,
2013-04-26 18:19:00,63.8,32.6,30.31,WNW,292,0.0,0.0,31,0.00,,,0.00,LWC V2.11 B50,2013-04-26 22:19:00,
2013-04-26 18:24:00,63.8,31.8,30.31,NNW,334,0.0,3.0,30,0.00,,,0.00,LWC V2.11 B50,2013-04-26 22:24:00,
2013-04-26 18:29:00,63.9,32.7,30.31,WNW,301,0.0,0.0,31,0.00,,,0.00,LWC V2.11 B50,2013-04-26 22:29:00,
2013-04-26 18:34:00,63.9,33.5,30.31,WNW,301,0.0,0.0,32,0.00,,,0.00,LWC V2.11 B50,2013-04-26 22:34:00,
2013-04-26 18:39:00,64.0,33.5,30.31,NW,311,0.0,0.0,32,0.00,,,0.00,LWC V2.11 B50,2013-04-26 22:39:00,
2013-04-26 18:44:00,64.3,33.0,30.31,NW,311,0.0,0.0,31,0.00,,,0.00,LWC V2.11 B50,2013-04-26 22:44:00,
2013-04-26 18:49:00,64.1,32.0,30.31,NW,311,0.0,0.0,30,0.00,,,0.00,LWC V2.11 B50,2013-04-26 22:49:00,
2013-04-26 18:54:00,63.9,32.7,30.31,NW,311,0.0,0.0,31,0.00,,,0.00,LWC V2.11 B50,2013-04-26 22:54:00,
2013-04-26 18:59:00,63.8,31.8,30.30,NW,310,0.0,0.0,30,0.00,,,0.00,LWC V2.11 B50,2013-04-26 22:59:00,
2013-04-26 19:04:00,63.6,32.4,30.30,NW,310,0.0,0.0,31,0.00,,,0.00,LWC V2.11 B50,2013-04-26 23:04:00,
2013-04-26 19:09:00,63.5,32.3,30.30,NW,311,0.0,0.0,31,0.00,,,0.00,LWC V2.11 B50,2013-04-26 23:09:00,
2013-04-26 19:14:00,63.6,32.4,30.31,NW,311,0.0,0.0,31,0.00,,,0.00,LWC V2.11 B50,2013-04-26 23:14:00,
2013-04-26 19:19:00,63.5,31.5,30.30,NW,311,0.0,0.0,30,0.00,,,0.00,LWC V2.11 B50,2013-04-26 23:19:00,
2013-04-26 19:24:00,63.0,33.4,30.31,NW,310,0.0,0.0,33,0.00,,,0.00,LWC V2.11 B50,2013-04-26 23:24:00,
2013-04-26 19:29:00,62.5,33.7,30.31,NW,311,0.0,0.0,34,0.00,,,0.00,LWC V2.11 B50,2013-04-26 23:29:00,
2013-04-26 19:34:00,61.8,32.4,30.31,NW,311,0.0,0.0,33,0.00,,,0.00,LWC V2.11 B50,2013-04-26 23:34:00,
2013-04-26 19:39:00,61.2,32.6,30.31,NW,311,0.0,0.0,34,0.00,,,0.00,LWC V2.11 B50,2013-04-26 23:39:00,
2013-04-26 19:44:00,60.6,32.1,30.31,NW,310,0.0,0.0,34,0.00,,,0.00,LWC V2.11 B50,2013-04-26 23:44:00,
2013-04-26 19:49:00,59.9,32.2,30.31,NW,310,0.0,0.0,35,0.00,,,0.00,LWC V2.11 B50,2013-04-26 23:49:00,
2013-04-26 19:54:00,59.4,33.1,30.31,NW,311,0.0,0.0,37,0.00,,,0.00,LWC V2.11 B50,2013-04-26 23:54:00,
2013-04-26 20:05:00,57.9,33.7,30.31,NW,311,0.0,0.0,40,0.00,,,0.00,LWC V2.11 B50,2013-04-27 00:05:00,
2013-04-26 20:10:00,57.0,32.9,30.32,NW,311,0.0,0.0,40,0.00,,,0.00,LWC V2.11 B50,2013-04-27 00:10:00,
2013-04-26 20:15:00,56.2,34.6,30.32,NW,311,0.0,0.0,44,0.00,,,0.00,LWC V2.11 B50,2013-04-27 00:15:00,
2013-04-26 20:20:00,55.6,34.6,30.33,NW,311,0.0,0.0,45,0.00,,,0.00,LWC V2.11 B50,2013-04-27 00:20:00,
2013-04-26 20:25:00,55.0,34.6,30.33,NW,310,0.0,0.0,46,0.00,,,0.00,LWC V2.11 B50,2013-04-27 00:25:00,
2013-04-26 20:30:00,54.5,35.2,30.33,NW,311,0.0,0.0,48,0.00,,,0.00,LWC V2.11 B50,2013-04-27 00:30:00,
2013-04-26 20:35:00,54.0,35.8,30.33,NW,310,0.0,0.0,50,0.00,,,0.00,LWC V2.11 B50,2013-04-27 00:35:00,
2013-04-26 20:40:00,53.5,35.3,30.33,NW,311,0.0,0.0,50,0.00,,,0.00,LWC V2.11 B50,2013-04-27 00:40:00,
2013-04-26 20:45:00,52.8,34.7,30.33,NW,310,0.0,0.0,50,0.00,,,0.00,LWC V2.11 B50,2013-04-27 00:45:00,
2013-04-26 20:50:00,52.3,35.2,30.33,NW,311,0.0,0.0,52,0.00,,,0.00,LWC V2.11 B50,2013-04-27 00:50:00,
2013-04-26 20:55:00,51.8,35.7,30.33,NW,311,0.0,0.0,54,0.00,,,0.00,LWC V2.11 B50,2013-04-27 00:55:00,
2013-04-26 21:00:00,51.4,35.8,30.33,NW,310,0.0,0.0,55,0.00,,,0.00,LWC V2.11 B50,2013-04-27 01:00:00,
2013-04-26 21:05:00,50.9,35.3,30.33,NW,311,0.0,0.0,55,0.00,,,0.00,LWC V2.11 B50,2013-04-27 01:05:00,
2013-04-26 21:10:00,50.5,36.3,30.33,NW,311,0.0,0.0,58,0.00,,,0.00,LWC V2.11 B50,2013-04-27 01:10:00,
2013-04-26 21:15:00,50.2,35.6,30.33,NW,311,0.0,0.0,57,0.00,,,0.00,LWC V2.11 B50,2013-04-27 01:15:00,
2013-04-26 21:20:00,49.9,36.1,30.33,NW,310,0.0,0.0,59,0.00,,,0.00,LWC V2.11 B50,2013-04-27 01:20:00,
2013-04-26 21:25:00,49.6,35.9,30.33,NW,310,0.0,0.0,59,0.00,,,0.00,LWC V2.11 B50,2013-04-27 01:25:00,
2013-04-26 21:30:00,49.3,36.0,30.33,NW,311,0.0,0.0,60,0.00,,,0.00,LWC V2.11 B50,2013-04-27 01:30:00,
2013-04-26 21:35:00,49.0,36.1,30.33,NW,310,0.0,0.0,61,0.00,,,0.00,LWC V2.11 B50,2013-04-27 01:35:00,
2013-04-26 21:40:00,48.8,36.0,30.34,NW,311,0.0,0.0,61,0.00,,,0.00,LWC V2.11 B50,2013-04-27 01:40:00,
2013-04-26 21:45:00,48.6,35.8,30.34,NW,311,0.0,0.0,61,0.00,,,0.00,LWC V2.11 B50,2013-04-27 01:45:00,
2013-04-26 21:50:00,48.6,36.2,30.34,NW,311,0.0,0.0,62,0.00,,,0.00,LWC V2.11 B50,2013-04-27 01:50:00,
2013-04-26 21:55:00,48.5,36.5,30.34,NW,310,0.0,0.0,63,0.00,,,0.00,LWC V2.11 B50,2013-04-27 01:55:00,
2013-04-26 22:00:00,48.3,36.3,30.34,NW,311,0.0,0.0,63,0.00,,,0.00,LWC V2.11 B50,2013-04-27 02:00:00,
2013-04-26 22:05:00,48.1,35.7,30.34,NW,311,0.0,0.0,62,0.00,,,0.00,LWC V2.11 B50,2013-04-27 02:05:00,
2013-04-26 22:10:00,47.8,35.4,30.34,NW,310,0.0,0.0,62,0.00,,,0.00,LWC V2.11 B50,2013-04-27 02:10:00,
2013-04-26 22:15:00,47.4,35.4,30.34,NW,310,0.0,0.0,63,0.00,,,0.00,LWC V2.11 B50,2013-04-27 02:15:00,
2013-04-26 22:20:00,47.1,35.2,30.34,NW,310,0.0,0.0,63,0.00,,,0.00,LWC V2.11 B50,2013-04-27 02:20:00,
2013-04-26 22:25:00,46.8,35.3,30.34,NW,311,0.0,0.0,64,0.00,,,0.00,LWC V2.11 B50,2013-04-27 02:25:00,
2013-04-26 22:30:00,46.5,35.4,30.34,NW,310,0.0,0.0,65,0.00,,,0.00,LWC V2.11 B50,2013-04-27 02:30:00,
2013-04-26 22:35:00,46.2,35.1,30.34,NW,311,0.0,0.0,65,0.00,,,0.00,LWC V2.11 B50,2013-04-27 02:35:00,
2013-04-26 22:40:00,45.9,35.2,30.35,NW,311,0.0,0.0,66,0.00,,,0.00,LWC V2.11 B50,2013-04-27 02:40:00,
2013-04-26 22:45:00,45.7,35.8,30.34,NW,311,0.0,0.0,68,0.00,,,0.00,LWC V2.11 B50,2013-04-27 02:45:00,
2013-04-26 22:50:00,45.4,35.1,30.34,NW,310,0.0,0.0,67,0.00,,,0.00,LWC V2.11 B50,2013-04-27 02:50:00,
2013-04-26 22:55:00,45.2,35.6,30.35,NW,311,0.0,0.0,69,0.00,,,0.00,LWC V2.11 B50,2013-04-27 02:55:00,
2013-04-26 23:00:00,45.1,35.5,30.34,NW,311,0.0,0.0,69,0.00,,,0.00,LWC V2.11 B50,2013-04-27 03:00:00,
2013-04-26 23:05:00,44.9,35.4,30.34,NW,311,0.0,0.0,69,0.00,,,0.00,LWC V2.11 B50,2013-04-27 03:05:00,
2013-04-26 23:10:00,44.7,35.9,30.34,NW,311,0.0,0.0,71,0.00,,,0.00,LWC V2.11 B50,2013-04-27 03:10:00,
2013-04-26 23:15:00,44.4,35.6,30.35,NW,311,0.0,0.0,71,0.00,,,0.00,LWC V2.11 B50,2013-04-27 03:15:00,
2013-04-26 23:20:00,44.2,35.4,30.35,NW,310,0.0,0.0,71,0.00,,,0.00,LWC V2.11 B50,2013-04-27 03:20:00,
2013-04-26 23:25:00,44.1,35.3,30.35,NW,310,0.0,0.0,71,0.00,,,0.00,LWC V2.11 B50,2013-04-27 03:25:00,
2013-04-26 23:30:00,44.0,35.6,30.35,NW,310,0.0,0.0,72,0.00,,,0.00,LWC V2.11 B50,2013-04-27 03:30:00,
2013-04-26 23:35:00,43.8,35.0,30.35,NW,311,0.0,0.0,71,0.00,,,0.00,LWC V2.11 B50,2013-04-27 03:35:00,
2013-04-26 23:40:00,43.7,34.6,30.35,NW,311,0.0,0.0,70,0.00,,,0.00,LWC V2.11 B50,2013-04-27 03:40:00,
2013-04-26 23:45:00,43.5,34.7,30.35,NW,310,0.0,0.0,71,0.00,,,0.00,LWC V2.11 B50,2013-04-27 03:45:00,
2013-04-26 23:50:00,43.4,34.6,30.35,NW,311,0.0,0.0,71,0.00,,,0.00,LWC V2.11 B50,2013-04-27 03:50:00,
2013-04-26 23:55:00,43.3,34.9,30.35,NW,311,0.0,0.0,72,0.00,,,0.00,LWC V2.11 B50,2013-04-27 03:55:00,